sensor_id;sensor_type;location;lat;lon;timestamp;P1;durP1;ratioP1;P2;durP2;ratioP2
78901;SDS011;70441;44.758;37.686;2024-02-23T00:00:31;20.00;;;8.10;;
78901;SDS011;70441;44.758;37.686;2024-02-23T00:01:32;19.38;;;8.57;;
78901;SDS011;70441;44.758;37.686;2024-02-23T00:02:34;20.35;;;9.38;;
78901;SDS011;70441;44.758;37.686;2024-02-23T00:03:36;20.52;;;8.73;;
78901;SDS011;70441;44.758;37.686;2024-02-23T00:04:38;21.63;;;8.43;;
78901;SDS011;70441;44.758;37.686;2024-02-23T00:05:39;22.08;;;9.00;;
78901;SDS011;70441;44.758;37.686;2024-02-23T00:06:41;17.67;;;7.88;;
78901;SDS011;70441;44.758;37.686;2024-02-23T00:07:43;19.63;;;7.75;;
78901;SDS011;70441;44.758;37.686;2024-02-23T00:08:44;27.17;;;8.45;;
78901;SDS011;70441;44.758;37.686;2024-02-23T00:09:46;19.27;;;8.35;;
78901;SDS011;70441;44.758;37.686;2024-02-23T00:10:48;23.35;;;8.93;;
78901;SDS011;70441;44.758;37.686;2024-02-23T00:11:50;22.38;;;8.75;;
78901;SDS011;70441;44.758;37.686;2024-02-23T00:12:51;19.27;;;8.68;;
78901;SDS011;70441;44.758;37.686;2024-02-23T00:13:53;19.92;;;9.10;;
78901;SDS011;70441;44.758;37.686;2024-02-23T00:14:55;26.77;;;10.27;;
78901;SDS011;70441;44.758;37.686;2024-02-23T00:15:57;22.55;;;10.00;;
78901;SDS011;70441;44.758;37.686;2024-02-23T00:16:58;18.77;;;8.95;;
78901;SDS011;70441;44.758;37.686;2024-02-23T00:18:02;18.48;;;8.25;;
78901;SDS011;70441;44.758;37.686;2024-02-23T00:19:05;19.25;;;8.40;;
78901;SDS011;70441;44.758;37.686;2024-02-23T00:20:13;23.83;;;9.13;;
78901;SDS011;70441;44.758;37.686;2024-02-23T00:21:16;19.55;;;8.60;;
78901;SDS011;70441;44.758;37.686;2024-02-23T00:22:17;21.83;;;8.43;;
78901;SDS011;70441;44.758;37.686;2024-02-23T00:23:19;20.95;;;8.27;;
78901;SDS011;70441;44.758;37.686;2024-02-23T00:24:21;24.88;;;10.80;;
78901;SDS011;70441;44.758;37.686;2024-02-23T00:25:22;31.23;;;13.18;;
78901;SDS011;70441;44.758;37.686;2024-02-23T00:26:25;31.08;;;13.05;;
78901;SDS011;70441;44.758;37.686;2024-02-23T00:27:29;34.42;;;13.88;;
78901;SDS011;70441;44.758;37.686;2024-02-23T00:28:30;37.75;;;16.35;;
78901;SDS011;70441;44.758;37.686;2024-02-23T00:29:32;39.92;;;17.00;;
78901;SDS011;70441;44.758;37.686;2024-02-23T00:30:34;38.60;;;16.88;;
78901;SDS011;70441;44.758;37.686;2024-02-23T00:31:37;46.40;;;18.70;;
78901;SDS011;70441;44.758;37.686;2024-02-23T00:32:42;39.25;;;15.85;;
78901;SDS011;70441;44.758;37.686;2024-02-23T00:33:43;28.30;;;13.77;;
78901;SDS011;70441;44.758;37.686;2024-02-23T00:34:45;28.38;;;13.80;;
78901;SDS011;70441;44.758;37.686;2024-02-23T00:35:47;34.58;;;14.27;;
78901;SDS011;70441;44.758;37.686;2024-02-23T00:36:49;29.83;;;13.88;;
78901;SDS011;70441;44.758;37.686;2024-02-23T00:37:51;30.60;;;13.50;;
78901;SDS011;70441;44.758;37.686;2024-02-23T00:38:52;31.10;;;14.20;;
78901;SDS011;70441;44.758;37.686;2024-02-23T00:39:54;29.83;;;13.05;;
78901;SDS011;70441;44.758;37.686;2024-02-23T00:40:56;30.63;;;13.93;;
78901;SDS011;70441;44.758;37.686;2024-02-23T00:41:57;34.00;;;13.80;;
78901;SDS011;70441;44.758;37.686;2024-02-23T00:42:59;39.25;;;14.68;;
78901;SDS011;70441;44.758;37.686;2024-02-23T00:44:04;29.92;;;13.93;;
78901;SDS011;70441;44.758;37.686;2024-02-23T00:45:06;28.65;;;13.32;;
78901;SDS011;70441;44.758;37.686;2024-02-23T00:47:10;31.80;;;13.00;;
78901;SDS011;70441;44.758;37.686;2024-02-23T00:48:11;31.10;;;13.45;;
78901;SDS011;70441;44.758;37.686;2024-02-23T00:49:14;22.20;;;10.80;;
78901;SDS011;70441;44.758;37.686;2024-02-23T00:50:16;25.55;;;11.77;;
78901;SDS011;70441;44.758;37.686;2024-02-23T00:51:18;24.10;;;10.85;;
78901;SDS011;70441;44.758;37.686;2024-02-23T00:52:20;24.85;;;10.45;;
78901;SDS011;70441;44.758;37.686;2024-02-23T00:53:22;23.85;;;10.13;;
78901;SDS011;70441;44.758;37.686;2024-02-23T00:54:24;21.95;;;9.55;;
78901;SDS011;70441;44.758;37.686;2024-02-23T00:55:25;20.25;;;10.25;;
78901;SDS011;70441;44.758;37.686;2024-02-23T00:56:27;24.88;;;11.23;;
78901;SDS011;70441;44.758;37.686;2024-02-23T00:57:29;24.30;;;10.55;;
78901;SDS011;70441;44.758;37.686;2024-02-23T00:58:31;23.88;;;10.63;;
78901;SDS011;70441;44.758;37.686;2024-02-23T00:59:32;22.17;;;9.88;;
78901;SDS011;70441;44.758;37.686;2024-02-23T01:00:34;21.80;;;9.75;;
78901;SDS011;70441;44.758;37.686;2024-02-23T01:01:37;21.08;;;10.68;;
78901;SDS011;70441;44.758;37.686;2024-02-23T01:02:40;22.83;;;10.82;;
78901;SDS011;70441;44.758;37.686;2024-02-23T01:03:41;21.30;;;11.20;;
78901;SDS011;70441;44.758;37.686;2024-02-23T01:04:43;18.20;;;9.52;;
78901;SDS011;70441;44.758;37.686;2024-02-23T01:05:44;19.80;;;9.77;;
78901;SDS011;70441;44.758;37.686;2024-02-23T01:06:46;17.73;;;9.30;;
78901;SDS011;70441;44.758;37.686;2024-02-23T01:07:48;16.67;;;9.23;;
78901;SDS011;70441;44.758;37.686;2024-02-23T01:08:50;21.73;;;9.98;;
78901;SDS011;70441;44.758;37.686;2024-02-23T01:09:51;17.33;;;8.57;;
78901;SDS011;70441;44.758;37.686;2024-02-23T01:10:53;17.50;;;9.13;;
78901;SDS011;70441;44.758;37.686;2024-02-23T01:11:55;20.60;;;8.82;;
78901;SDS011;70441;44.758;37.686;2024-02-23T01:12:57;19.08;;;8.50;;
78901;SDS011;70441;44.758;37.686;2024-02-23T01:13:58;18.13;;;8.63;;
78901;SDS011;70441;44.758;37.686;2024-02-23T01:15:00;16.88;;;8.13;;
78901;SDS011;70441;44.758;37.686;2024-02-23T01:16:02;22.05;;;9.48;;
78901;SDS011;70441;44.758;37.686;2024-02-23T01:17:03;18.75;;;9.48;;
78901;SDS011;70441;44.758;37.686;2024-02-23T01:18:05;18.85;;;9.50;;
78901;SDS011;70441;44.758;37.686;2024-02-23T01:19:08;19.70;;;9.55;;
78901;SDS011;70441;44.758;37.686;2024-02-23T01:20:10;20.33;;;9.20;;
78901;SDS011;70441;44.758;37.686;2024-02-23T01:21:12;21.83;;;9.55;;
78901;SDS011;70441;44.758;37.686;2024-02-23T01:22:14;18.90;;;9.95;;
78901;SDS011;70441;44.758;37.686;2024-02-23T01:23:16;18.10;;;9.57;;
78901;SDS011;70441;44.758;37.686;2024-02-23T01:24:18;20.20;;;10.65;;
78901;SDS011;70441;44.758;37.686;2024-02-23T01:25:19;15.50;;;8.35;;
78901;SDS011;70441;44.758;37.686;2024-02-23T01:26:21;16.38;;;7.93;;
78901;SDS011;70441;44.758;37.686;2024-02-23T01:27:23;16.92;;;8.38;;
78901;SDS011;70441;44.758;37.686;2024-02-23T01:28:25;17.00;;;7.70;;
78901;SDS011;70441;44.758;37.686;2024-02-23T01:29:26;13.90;;;7.40;;
78901;SDS011;70441;44.758;37.686;2024-02-23T01:30:32;16.40;;;7.43;;
78901;SDS011;70441;44.758;37.686;2024-02-23T01:31:33;13.50;;;6.82;;
78901;SDS011;70441;44.758;37.686;2024-02-23T01:32:35;14.52;;;6.82;;
78901;SDS011;70441;44.758;37.686;2024-02-23T01:33:39;13.32;;;6.50;;
78901;SDS011;70441;44.758;37.686;2024-02-23T01:34:41;11.48;;;5.88;;
78901;SDS011;70441;44.758;37.686;2024-02-23T01:35:42;10.88;;;5.65;;
78901;SDS011;70441;44.758;37.686;2024-02-23T01:36:44;14.82;;;6.65;;
78901;SDS011;70441;44.758;37.686;2024-02-23T01:37:46;12.82;;;6.45;;
78901;SDS011;70441;44.758;37.686;2024-02-23T01:38:47;15.13;;;6.72;;
78901;SDS011;70441;44.758;37.686;2024-02-23T01:39:51;12.23;;;6.32;;
78901;SDS011;70441;44.758;37.686;2024-02-23T01:40:53;14.80;;;6.97;;
78901;SDS011;70441;44.758;37.686;2024-02-23T01:41:55;15.18;;;6.57;;
78901;SDS011;70441;44.758;37.686;2024-02-23T01:43:03;12.20;;;6.20;;
78901;SDS011;70441;44.758;37.686;2024-02-23T01:44:05;12.00;;;6.05;;
78901;SDS011;70441;44.758;37.686;2024-02-23T01:45:07;13.43;;;5.78;;
78901;SDS011;70441;44.758;37.686;2024-02-23T01:46:09;10.77;;;5.78;;
78901;SDS011;70441;44.758;37.686;2024-02-23T01:47:14;13.13;;;6.35;;
78901;SDS011;70441;44.758;37.686;2024-02-23T01:48:17;14.98;;;6.95;;
78901;SDS011;70441;44.758;37.686;2024-02-23T01:49:19;15.27;;;6.50;;
78901;SDS011;70441;44.758;37.686;2024-02-23T01:50:21;13.45;;;6.97;;
78901;SDS011;70441;44.758;37.686;2024-02-23T01:51:24;12.90;;;6.80;;
78901;SDS011;70441;44.758;37.686;2024-02-23T01:52:26;13.95;;;7.47;;
78901;SDS011;70441;44.758;37.686;2024-02-23T01:53:29;18.52;;;9.38;;
78901;SDS011;70441;44.758;37.686;2024-02-23T01:55:34;19.20;;;7.85;;
78901;SDS011;70441;44.758;37.686;2024-02-23T01:56:36;20.23;;;8.52;;
78901;SDS011;70441;44.758;37.686;2024-02-23T01:57:40;21.35;;;8.52;;
78901;SDS011;70441;44.758;37.686;2024-02-23T01:58:42;19.95;;;10.38;;
78901;SDS011;70441;44.758;37.686;2024-02-23T01:59:44;20.92;;;10.25;;
78901;SDS011;70441;44.758;37.686;2024-02-23T02:00:46;20.58;;;10.30;;
78901;SDS011;70441;44.758;37.686;2024-02-23T02:01:47;19.13;;;9.48;;
78901;SDS011;70441;44.758;37.686;2024-02-23T02:02:49;16.52;;;8.88;;
78901;SDS011;70441;44.758;37.686;2024-02-23T02:03:51;17.90;;;9.13;;
78901;SDS011;70441;44.758;37.686;2024-02-23T02:04:53;19.80;;;9.02;;
78901;SDS011;70441;44.758;37.686;2024-02-23T02:05:55;19.90;;;8.93;;
78901;SDS011;70441;44.758;37.686;2024-02-23T02:07:00;16.17;;;8.35;;
78901;SDS011;70441;44.758;37.686;2024-02-23T02:08:02;16.23;;;8.13;;
78901;SDS011;70441;44.758;37.686;2024-02-23T02:09:04;17.10;;;8.00;;
78901;SDS011;70441;44.758;37.686;2024-02-23T02:10:06;15.95;;;7.35;;
78901;SDS011;70441;44.758;37.686;2024-02-23T02:11:10;15.75;;;7.65;;
78901;SDS011;70441;44.758;37.686;2024-02-23T02:12:12;13.88;;;7.38;;
78901;SDS011;70441;44.758;37.686;2024-02-23T02:13:13;16.02;;;7.63;;
78901;SDS011;70441;44.758;37.686;2024-02-23T02:14:15;14.52;;;7.32;;
78901;SDS011;70441;44.758;37.686;2024-02-23T02:15:18;14.25;;;7.15;;
78901;SDS011;70441;44.758;37.686;2024-02-23T02:16:22;15.07;;;7.88;;
78901;SDS011;70441;44.758;37.686;2024-02-23T02:17:24;15.90;;;7.05;;
78901;SDS011;70441;44.758;37.686;2024-02-23T02:18:26;16.25;;;8.02;;
78901;SDS011;70441;44.758;37.686;2024-02-23T02:19:28;17.65;;;7.97;;
78901;SDS011;70441;44.758;37.686;2024-02-23T02:20:32;14.80;;;7.47;;
78901;SDS011;70441;44.758;37.686;2024-02-23T02:21:34;18.13;;;7.80;;
78901;SDS011;70441;44.758;37.686;2024-02-23T02:22:36;16.27;;;8.63;;
78901;SDS011;70441;44.758;37.686;2024-02-23T02:23:38;16.55;;;7.47;;
78901;SDS011;70441;44.758;37.686;2024-02-23T02:24:40;17.20;;;7.75;;
78901;SDS011;70441;44.758;37.686;2024-02-23T02:25:44;17.02;;;8.20;;
78901;SDS011;70441;44.758;37.686;2024-02-23T02:26:46;17.45;;;9.20;;
78901;SDS011;70441;44.758;37.686;2024-02-23T02:27:51;17.25;;;9.73;;
78901;SDS011;70441;44.758;37.686;2024-02-23T02:28:53;22.27;;;10.82;;
78901;SDS011;70441;44.758;37.686;2024-02-23T02:30:00;18.70;;;9.35;;
78901;SDS011;70441;44.758;37.686;2024-02-23T02:31:02;21.00;;;9.65;;
78901;SDS011;70441;44.758;37.686;2024-02-23T02:32:04;22.05;;;10.82;;
78901;SDS011;70441;44.758;37.686;2024-02-23T02:33:06;21.05;;;10.82;;
78901;SDS011;70441;44.758;37.686;2024-02-23T02:34:08;20.73;;;10.07;;
78901;SDS011;70441;44.758;37.686;2024-02-23T02:35:15;19.27;;;9.98;;
78901;SDS011;70441;44.758;37.686;2024-02-23T02:36:16;19.70;;;9.55;;
78901;SDS011;70441;44.758;37.686;2024-02-23T02:37:18;21.08;;;10.85;;
78901;SDS011;70441;44.758;37.686;2024-02-23T02:38:20;19.60;;;10.43;;
78901;SDS011;70441;44.758;37.686;2024-02-23T02:39:21;20.95;;;10.68;;
78901;SDS011;70441;44.758;37.686;2024-02-23T02:40:23;20.45;;;11.10;;
78901;SDS011;70441;44.758;37.686;2024-02-23T02:41:27;20.38;;;10.07;;
78901;SDS011;70441;44.758;37.686;2024-02-23T02:42:32;24.65;;;9.95;;
78901;SDS011;70441;44.758;37.686;2024-02-23T02:43:34;20.42;;;10.43;;
78901;SDS011;70441;44.758;37.686;2024-02-23T02:44:36;19.30;;;9.45;;
78901;SDS011;70441;44.758;37.686;2024-02-23T02:45:38;22.05;;;10.43;;
78901;SDS011;70441;44.758;37.686;2024-02-23T02:46:41;32.92;;;13.93;;
78901;SDS011;70441;44.758;37.686;2024-02-23T02:47:43;25.85;;;11.73;;
78901;SDS011;70441;44.758;37.686;2024-02-23T02:48:45;24.02;;;10.82;;
78901;SDS011;70441;44.758;37.686;2024-02-23T02:49:47;23.25;;;10.35;;
78901;SDS011;70441;44.758;37.686;2024-02-23T02:50:50;21.67;;;9.88;;
78901;SDS011;70441;44.758;37.686;2024-02-23T02:51:53;22.80;;;10.40;;
78901;SDS011;70441;44.758;37.686;2024-02-23T02:52:55;26.55;;;11.68;;
78901;SDS011;70441;44.758;37.686;2024-02-23T02:53:56;27.75;;;11.30;;
78901;SDS011;70441;44.758;37.686;2024-02-23T02:54:58;27.65;;;12.05;;
78901;SDS011;70441;44.758;37.686;2024-02-23T02:56:00;22.95;;;11.10;;
78901;SDS011;70441;44.758;37.686;2024-02-23T02:57:01;25.95;;;10.15;;
78901;SDS011;70441;44.758;37.686;2024-02-23T02:58:03;22.63;;;9.63;;
78901;SDS011;70441;44.758;37.686;2024-02-23T02:59:05;22.50;;;9.40;;
78901;SDS011;70441;44.758;37.686;2024-02-23T03:00:09;23.10;;;8.77;;
78901;SDS011;70441;44.758;37.686;2024-02-23T03:01:11;19.63;;;8.90;;
78901;SDS011;70441;44.758;37.686;2024-02-23T03:02:13;20.15;;;9.20;;
78901;SDS011;70441;44.758;37.686;2024-02-23T03:03:15;20.65;;;8.98;;
78901;SDS011;70441;44.758;37.686;2024-02-23T03:04:16;21.52;;;9.77;;
78901;SDS011;70441;44.758;37.686;2024-02-23T03:05:18;19.92;;;9.70;;
78901;SDS011;70441;44.758;37.686;2024-02-23T03:06:20;23.65;;;10.27;;
78901;SDS011;70441;44.758;37.686;2024-02-23T03:07:22;24.85;;;10.48;;
78901;SDS011;70441;44.758;37.686;2024-02-23T03:08:23;21.95;;;10.05;;
78901;SDS011;70441;44.758;37.686;2024-02-23T03:09:25;21.75;;;9.80;;
78901;SDS011;70441;44.758;37.686;2024-02-23T03:10:27;23.52;;;9.45;;
78901;SDS011;70441;44.758;37.686;2024-02-23T03:11:28;20.73;;;10.05;;
78901;SDS011;70441;44.758;37.686;2024-02-23T03:12:30;24.17;;;10.20;;
78901;SDS011;70441;44.758;37.686;2024-02-23T03:13:32;24.13;;;10.00;;
78901;SDS011;70441;44.758;37.686;2024-02-23T03:14:33;22.30;;;9.63;;
78901;SDS011;70441;44.758;37.686;2024-02-23T03:15:35;20.38;;;9.77;;
78901;SDS011;70441;44.758;37.686;2024-02-23T03:16:37;21.88;;;10.15;;
78901;SDS011;70441;44.758;37.686;2024-02-23T03:17:38;21.90;;;10.13;;
78901;SDS011;70441;44.758;37.686;2024-02-23T03:18:42;25.50;;;10.45;;
78901;SDS011;70441;44.758;37.686;2024-02-23T03:19:43;21.30;;;10.15;;
78901;SDS011;70441;44.758;37.686;2024-02-23T03:20:45;28.73;;;10.55;;
78901;SDS011;70441;44.758;37.686;2024-02-23T03:21:47;25.20;;;10.68;;
78901;SDS011;70441;44.758;37.686;2024-02-23T03:22:48;18.48;;;9.25;;
78901;SDS011;70441;44.758;37.686;2024-02-23T03:23:50;22.50;;;9.23;;
78901;SDS011;70441;44.758;37.686;2024-02-23T03:24:52;23.15;;;9.98;;
78901;SDS011;70441;44.758;37.686;2024-02-23T03:25:53;20.23;;;9.13;;
78901;SDS011;70441;44.758;37.686;2024-02-23T03:26:55;22.00;;;9.65;;
78901;SDS011;70441;44.758;37.686;2024-02-23T03:28:00;19.35;;;9.02;;
78901;SDS011;70441;44.758;37.686;2024-02-23T03:29:02;20.98;;;10.05;;
78901;SDS011;70441;44.758;37.686;2024-02-23T03:30:04;24.08;;;9.07;;
78901;SDS011;70441;44.758;37.686;2024-02-23T03:31:09;21.88;;;9.50;;
78901;SDS011;70441;44.758;37.686;2024-02-23T03:32:10;20.80;;;9.18;;
78901;SDS011;70441;44.758;37.686;2024-02-23T03:33:12;22.98;;;10.43;;
78901;SDS011;70441;44.758;37.686;2024-02-23T03:34:13;25.60;;;9.75;;
78901;SDS011;70441;44.758;37.686;2024-02-23T03:35:15;20.77;;;9.80;;
78901;SDS011;70441;44.758;37.686;2024-02-23T03:36:17;24.08;;;8.98;;
78901;SDS011;70441;44.758;37.686;2024-02-23T03:37:18;28.42;;;10.38;;
78901;SDS011;70441;44.758;37.686;2024-02-23T03:38:20;33.97;;;10.02;;
78901;SDS011;70441;44.758;37.686;2024-02-23T03:39:22;34.55;;;10.57;;
78901;SDS011;70441;44.758;37.686;2024-02-23T03:40:23;29.02;;;9.65;;
78901;SDS011;70441;44.758;37.686;2024-02-23T03:41:25;21.52;;;9.38;;
78901;SDS011;70441;44.758;37.686;2024-02-23T03:42:27;19.67;;;9.27;;
78901;SDS011;70441;44.758;37.686;2024-02-23T03:43:29;20.67;;;9.30;;
78901;SDS011;70441;44.758;37.686;2024-02-23T03:44:30;19.08;;;8.63;;
78901;SDS011;70441;44.758;37.686;2024-02-23T03:45:32;19.25;;;8.90;;
78901;SDS011;70441;44.758;37.686;2024-02-23T03:46:34;16.95;;;7.90;;
78901;SDS011;70441;44.758;37.686;2024-02-23T03:47:36;21.10;;;9.10;;
78901;SDS011;70441;44.758;37.686;2024-02-23T03:48:38;23.60;;;8.90;;
78901;SDS011;70441;44.758;37.686;2024-02-23T03:49:40;23.30;;;9.63;;
78901;SDS011;70441;44.758;37.686;2024-02-23T03:50:41;23.80;;;10.45;;
78901;SDS011;70441;44.758;37.686;2024-02-23T03:51:43;21.20;;;9.57;;
78901;SDS011;70441;44.758;37.686;2024-02-23T03:52:45;20.67;;;9.43;;
78901;SDS011;70441;44.758;37.686;2024-02-23T03:53:47;24.80;;;9.70;;
78901;SDS011;70441;44.758;37.686;2024-02-23T03:54:48;20.40;;;10.68;;
78901;SDS011;70441;44.758;37.686;2024-02-23T03:55:51;24.35;;;10.38;;
78901;SDS011;70441;44.758;37.686;2024-02-23T03:56:52;21.02;;;10.23;;
78901;SDS011;70441;44.758;37.686;2024-02-23T03:57:54;19.05;;;9.63;;
78901;SDS011;70441;44.758;37.686;2024-02-23T03:58:55;20.02;;;10.45;;
78901;SDS011;70441;44.758;37.686;2024-02-23T03:59:57;24.63;;;9.95;;
78901;SDS011;70441;44.758;37.686;2024-02-23T04:00:59;23.40;;;9.57;;
78901;SDS011;70441;44.758;37.686;2024-02-23T04:02:01;20.85;;;9.68;;
78901;SDS011;70441;44.758;37.686;2024-02-23T04:03:03;20.90;;;9.63;;
78901;SDS011;70441;44.758;37.686;2024-02-23T04:04:05;25.30;;;10.20;;
78901;SDS011;70441;44.758;37.686;2024-02-23T04:05:07;22.15;;;9.60;;
78901;SDS011;70441;44.758;37.686;2024-02-23T04:06:09;22.98;;;9.18;;
78901;SDS011;70441;44.758;37.686;2024-02-23T04:07:10;21.58;;;9.00;;
78901;SDS011;70441;44.758;37.686;2024-02-23T04:08:12;25.60;;;9.25;;
78901;SDS011;70441;44.758;37.686;2024-02-23T04:09:14;21.35;;;8.95;;
78901;SDS011;70441;44.758;37.686;2024-02-23T04:10:16;24.58;;;8.77;;
78901;SDS011;70441;44.758;37.686;2024-02-23T04:11:17;18.00;;;8.57;;
78901;SDS011;70441;44.758;37.686;2024-02-23T04:12:19;21.42;;;9.50;;
78901;SDS011;70441;44.758;37.686;2024-02-23T04:13:21;27.42;;;10.20;;
78901;SDS011;70441;44.758;37.686;2024-02-23T04:14:22;21.52;;;9.35;;
78901;SDS011;70441;44.758;37.686;2024-02-23T04:15:24;25.70;;;11.45;;
78901;SDS011;70441;44.758;37.686;2024-02-23T04:16:26;25.25;;;10.68;;
78901;SDS011;70441;44.758;37.686;2024-02-23T04:17:28;31.48;;;10.60;;
78901;SDS011;70441;44.758;37.686;2024-02-23T04:18:30;31.58;;;10.95;;
78901;SDS011;70441;44.758;37.686;2024-02-23T04:19:33;22.17;;;9.60;;
78901;SDS011;70441;44.758;37.686;2024-02-23T04:20:34;27.60;;;10.13;;
78901;SDS011;70441;44.758;37.686;2024-02-23T04:21:36;24.48;;;9.35;;
78901;SDS011;70441;44.758;37.686;2024-02-23T04:22:38;25.80;;;9.43;;
78901;SDS011;70441;44.758;37.686;2024-02-23T04:23:40;22.48;;;9.32;;
78901;SDS011;70441;44.758;37.686;2024-02-23T04:24:41;34.70;;;10.65;;
78901;SDS011;70441;44.758;37.686;2024-02-23T04:25:43;35.63;;;9.93;;
78901;SDS011;70441;44.758;37.686;2024-02-23T04:26:45;32.22;;;11.35;;
78901;SDS011;70441;44.758;37.686;2024-02-23T04:27:46;29.80;;;10.52;;
78901;SDS011;70441;44.758;37.686;2024-02-23T04:28:48;34.58;;;10.45;;
78901;SDS011;70441;44.758;37.686;2024-02-23T04:29:50;32.05;;;9.82;;
78901;SDS011;70441;44.758;37.686;2024-02-23T04:30:51;32.50;;;10.70;;
78901;SDS011;70441;44.758;37.686;2024-02-23T04:31:53;31.67;;;9.90;;
78901;SDS011;70441;44.758;37.686;2024-02-23T04:32:55;23.13;;;8.57;;
78901;SDS011;70441;44.758;37.686;2024-02-23T04:33:56;22.02;;;10.02;;
78901;SDS011;70441;44.758;37.686;2024-02-23T04:34:58;24.90;;;8.55;;
78901;SDS011;70441;44.758;37.686;2024-02-23T04:36:00;34.22;;;10.07;;
78901;SDS011;70441;44.758;37.686;2024-02-23T04:37:01;34.67;;;10.32;;
78901;SDS011;70441;44.758;37.686;2024-02-23T04:38:03;25.08;;;8.98;;
78901;SDS011;70441;44.758;37.686;2024-02-23T04:39:05;32.63;;;10.30;;
78901;SDS011;70441;44.758;37.686;2024-02-23T04:40:07;25.65;;;9.95;;
78901;SDS011;70441;44.758;37.686;2024-02-23T04:41:24;34.67;;;10.35;;
78901;SDS011;70441;44.758;37.686;2024-02-23T04:42:25;34.08;;;9.60;;
78901;SDS011;70441;44.758;37.686;2024-02-23T04:43:28;27.27;;;10.00;;
78901;SDS011;70441;44.758;37.686;2024-02-23T04:44:30;26.20;;;9.85;;
78901;SDS011;70441;44.758;37.686;2024-02-23T04:45:32;21.35;;;9.52;;
78901;SDS011;70441;44.758;37.686;2024-02-23T04:46:34;19.55;;;8.50;;
78901;SDS011;70441;44.758;37.686;2024-02-23T04:47:35;25.35;;;9.07;;
78901;SDS011;70441;44.758;37.686;2024-02-23T04:48:37;29.17;;;9.45;;
78901;SDS011;70441;44.758;37.686;2024-02-23T04:49:39;30.63;;;10.27;;
78901;SDS011;70441;44.758;37.686;2024-02-23T04:50:42;32.67;;;10.27;;
78901;SDS011;70441;44.758;37.686;2024-02-23T04:51:44;26.95;;;9.18;;
78901;SDS011;70441;44.758;37.686;2024-02-23T04:52:46;23.05;;;9.38;;
78901;SDS011;70441;44.758;37.686;2024-02-23T04:53:47;47.47;;;12.52;;
78901;SDS011;70441;44.758;37.686;2024-02-23T04:54:49;52.75;;;11.23;;
78901;SDS011;70441;44.758;37.686;2024-02-23T04:55:52;36.35;;;10.00;;
78901;SDS011;70441;44.758;37.686;2024-02-23T04:56:53;27.90;;;10.90;;
78901;SDS011;70441;44.758;37.686;2024-02-23T04:57:55;30.02;;;9.65;;
78901;SDS011;70441;44.758;37.686;2024-02-23T04:58:57;32.40;;;10.27;;
78901;SDS011;70441;44.758;37.686;2024-02-23T04:59:58;32.17;;;10.30;;
78901;SDS011;70441;44.758;37.686;2024-02-23T05:01:00;34.45;;;10.77;;
78901;SDS011;70441;44.758;37.686;2024-02-23T05:02:02;28.50;;;10.35;;
78901;SDS011;70441;44.758;37.686;2024-02-23T05:03:05;33.08;;;10.85;;
78901;SDS011;70441;44.758;37.686;2024-02-23T05:04:07;37.17;;;11.55;;
78901;SDS011;70441;44.758;37.686;2024-02-23T05:05:09;36.88;;;11.07;;
78901;SDS011;70441;44.758;37.686;2024-02-23T05:06:11;36.08;;;11.77;;
78901;SDS011;70441;44.758;37.686;2024-02-23T05:07:14;32.08;;;10.40;;
78901;SDS011;70441;44.758;37.686;2024-02-23T05:08:15;59.10;;;13.30;;
78901;SDS011;70441;44.758;37.686;2024-02-23T05:09:17;52.10;;;12.70;;
78901;SDS011;70441;44.758;37.686;2024-02-23T05:10:19;50.50;;;13.10;;
78901;SDS011;70441;44.758;37.686;2024-02-23T05:11:20;45.17;;;13.93;;
78901;SDS011;70441;44.758;37.686;2024-02-23T05:12:22;45.47;;;12.45;;
78901;SDS011;70441;44.758;37.686;2024-02-23T05:13:24;37.45;;;13.32;;
78901;SDS011;70441;44.758;37.686;2024-02-23T05:14:26;57.75;;;13.70;;
78901;SDS011;70441;44.758;37.686;2024-02-23T05:15:28;45.53;;;14.00;;
78901;SDS011;70441;44.758;37.686;2024-02-23T05:16:30;44.97;;;14.90;;
78901;SDS011;70441;44.758;37.686;2024-02-23T05:17:31;28.27;;;12.05;;
78901;SDS011;70441;44.758;37.686;2024-02-23T05:18:33;27.30;;;10.63;;
78901;SDS011;70441;44.758;37.686;2024-02-23T05:19:35;30.08;;;11.60;;
78901;SDS011;70441;44.758;37.686;2024-02-23T05:20:37;33.20;;;11.95;;
78901;SDS011;70441;44.758;37.686;2024-02-23T05:21:39;31.02;;;11.88;;
78901;SDS011;70441;44.758;37.686;2024-02-23T05:22:40;26.15;;;11.65;;
78901;SDS011;70441;44.758;37.686;2024-02-23T05:23:42;30.92;;;11.20;;
78901;SDS011;70441;44.758;37.686;2024-02-23T05:24:44;29.48;;;10.95;;
78901;SDS011;70441;44.758;37.686;2024-02-23T05:25:47;29.08;;;11.13;;
78901;SDS011;70441;44.758;37.686;2024-02-23T05:26:48;36.65;;;11.32;;
78901;SDS011;70441;44.758;37.686;2024-02-23T05:27:50;42.75;;;12.45;;
78901;SDS011;70441;44.758;37.686;2024-02-23T05:28:52;26.33;;;11.18;;
78901;SDS011;70441;44.758;37.686;2024-02-23T05:29:54;33.42;;;11.30;;
78901;SDS011;70441;44.758;37.686;2024-02-23T05:30:56;25.58;;;11.40;;
78901;SDS011;70441;44.758;37.686;2024-02-23T05:31:58;28.27;;;11.23;;
78901;SDS011;70441;44.758;37.686;2024-02-23T05:33:00;25.05;;;10.88;;
78901;SDS011;70441;44.758;37.686;2024-02-23T05:34:04;49.90;;;11.88;;
78901;SDS011;70441;44.758;37.686;2024-02-23T05:35:06;34.58;;;12.10;;
78901;SDS011;70441;44.758;37.686;2024-02-23T05:36:07;25.50;;;10.40;;
78901;SDS011;70441;44.758;37.686;2024-02-23T05:38:11;31.83;;;10.75;;
78901;SDS011;70441;44.758;37.686;2024-02-23T05:39:13;30.70;;;11.07;;
78901;SDS011;70441;44.758;37.686;2024-02-23T05:40:19;36.60;;;12.77;;
78901;SDS011;70441;44.758;37.686;2024-02-23T05:41:20;39.08;;;13.63;;
78901;SDS011;70441;44.758;37.686;2024-02-23T05:42:22;28.80;;;11.85;;
78901;SDS011;70441;44.758;37.686;2024-02-23T05:43:25;25.25;;;10.15;;
78901;SDS011;70441;44.758;37.686;2024-02-23T05:44:26;24.52;;;10.10;;
78901;SDS011;70441;44.758;37.686;2024-02-23T05:45:29;26.65;;;10.77;;
78901;SDS011;70441;44.758;37.686;2024-02-23T05:46:34;22.77;;;10.10;;
78901;SDS011;70441;44.758;37.686;2024-02-23T05:47:40;31.23;;;14.60;;
78901;SDS011;70441;44.758;37.686;2024-02-23T05:48:42;34.10;;;13.65;;
78901;SDS011;70441;44.758;37.686;2024-02-23T05:49:44;25.48;;;10.13;;
78901;SDS011;70441;44.758;37.686;2024-02-23T05:50:46;23.60;;;10.35;;
78901;SDS011;70441;44.758;37.686;2024-02-23T05:51:48;30.25;;;10.45;;
78901;SDS011;70441;44.758;37.686;2024-02-23T05:52:49;31.90;;;11.68;;
78901;SDS011;70441;44.758;37.686;2024-02-23T05:53:52;25.00;;;9.38;;
78901;SDS011;70441;44.758;37.686;2024-02-23T05:54:54;21.10;;;9.57;;
78901;SDS011;70441;44.758;37.686;2024-02-23T05:55:57;20.83;;;9.40;;
78901;SDS011;70441;44.758;37.686;2024-02-23T05:56:58;20.52;;;8.52;;
78901;SDS011;70441;44.758;37.686;2024-02-23T05:58:00;17.80;;;8.43;;
78901;SDS011;70441;44.758;37.686;2024-02-23T05:59:02;20.98;;;9.10;;
78901;SDS011;70441;44.758;37.686;2024-02-23T06:00:04;27.55;;;9.55;;
78901;SDS011;70441;44.758;37.686;2024-02-23T06:01:12;20.27;;;9.02;;
78901;SDS011;70441;44.758;37.686;2024-02-23T06:02:14;18.00;;;8.05;;
78901;SDS011;70441;44.758;37.686;2024-02-23T06:03:16;19.45;;;8.13;;
78901;SDS011;70441;44.758;37.686;2024-02-23T06:04:19;16.88;;;8.10;;